sensor_id;sensor_type;location;lat;lon;timestamp;pressure;altitude;pressure_sealevel;temperature;humidity
18504;BME280;9381;54.244;10.074;2023-12-29T00:04:37;99566.34;;;11.16;100.00
18504;BME280;9381;54.244;10.074;2023-12-29T00:09:37;99526.91;;;11.42;100.00
18504;BME280;9381;54.244;10.074;2023-12-29T00:14:43;99539.75;;;11.30;100.00
18504;BME280;9381;54.244;10.074;2023-12-29T00:19:44;99563.03;;;11.31;100.00
18504;BME280;9381;54.244;10.074;2023-12-29T00:24:45;99571.06;;;11.26;100.00
18504;BME280;9381;54.244;10.074;2023-12-29T00:29:45;99570.63;;;11.34;100.00
18504;BME280;9381;54.244;10.074;2023-12-29T00:34:45;99576.94;;;11.39;100.00
18504;BME280;9381;54.244;10.074;2023-12-29T00:39:46;99577.13;;;11.33;100.00
18504;BME280;9381;54.244;10.074;2023-12-29T00:44:46;99557.47;;;11.21;100.00
18504;BME280;9381;54.244;10.074;2023-12-29T00:49:46;99566.81;;;11.30;100.00
18504;BME280;9381;54.244;10.074;2023-12-29T00:54:47;99554.94;;;10.98;100.00
18504;BME280;9381;54.244;10.074;2023-12-29T00:59:47;99545.38;;;10.90;100.00
18504;BME280;9381;54.244;10.074;2023-12-29T01:04:47;99548.31;;;10.89;100.00
18504;BME280;9381;54.244;10.074;2023-12-29T01:09:48;99551.56;;;10.91;100.00
18504;BME280;9381;54.244;10.074;2023-12-29T01:14:48;99543.94;;;11.04;100.00
18504;BME280;9381;54.244;10.074;2023-12-29T01:19:48;99539.22;;;10.95;100.00
18504;BME280;9381;54.244;10.074;2023-12-29T01:24:49;99520.94;;;11.02;100.00
18504;BME280;9381;54.244;10.074;2023-12-29T01:29:49;99528.56;;;10.88;100.00
18504;BME280;9381;54.244;10.074;2023-12-29T01:34:49;99530.13;;;11.01;100.00
18504;BME280;9381;54.244;10.074;2023-12-29T01:39:50;99539.78;;;10.97;100.00
18504;BME280;9381;54.244;10.074;2023-12-29T01:44:50;99513.78;;;10.96;100.00
18504;BME280;9381;54.244;10.074;2023-12-29T01:49:54;99537.72;;;11.04;100.00
18504;BME280;9381;54.244;10.074;2023-12-29T01:54:55;99527.13;;;11.19;100.00
18504;BME280;9381;54.244;10.074;2023-12-29T01:59:56;99523.00;;;11.33;100.00
18504;BME280;9381;54.244;10.074;2023-12-29T02:04:56;99494.09;;;11.38;100.00
18504;BME280;9381;54.244;10.074;2023-12-29T02:09:58;99509.19;;;11.13;100.00
18504;BME280;9381;54.244;10.074;2023-12-29T02:14:59;99473.13;;;11.29;100.00
18504;BME280;9381;54.244;10.074;2023-12-29T02:20:00;99483.66;;;11.47;100.00
18504;BME280;9381;54.244;10.074;2023-12-29T02:25:00;99481.22;;;11.67;100.00
18504;BME280;9381;54.244;10.074;2023-12-29T02:30:20;99477.22;;;11.74;100.00
18504;BME280;9381;54.244;10.074;2023-12-29T02:35:28;99485.28;;;11.48;100.00
18504;BME280;9381;54.244;10.074;2023-12-29T02:40:28;99488.31;;;11.51;100.00
18504;BME280;9381;54.244;10.074;2023-12-29T02:45:29;99469.38;;;11.30;100.00
18504;BME280;9381;54.244;10.074;2023-12-29T02:50:29;99471.44;;;11.44;100.00
18504;BME280;9381;54.244;10.074;2023-12-29T02:55:30;99440.16;;;11.32;100.00
18504;BME280;9381;54.244;10.074;2023-12-29T03:00:30;99443.28;;;11.45;100.00
18504;BME280;9381;54.244;10.074;2023-12-29T03:05:30;99437.00;;;11.40;100.00
18504;BME280;9381;54.244;10.074;2023-12-29T03:10:31;99430.28;;;11.42;100.00
18504;BME280;9381;54.244;10.074;2023-12-29T03:15:31;99432.03;;;11.53;100.00
18504;BME280;9381;54.244;10.074;2023-12-29T03:20:31;99422.00;;;11.53;100.00
18504;BME280;9381;54.244;10.074;2023-12-29T03:25:32;99424.81;;;11.59;100.00
18504;BME280;9381;54.244;10.074;2023-12-29T03:30:32;99427.09;;;11.71;100.00
18504;BME280;9381;54.244;10.074;2023-12-29T03:35:32;99412.13;;;11.90;100.00
18504;BME280;9381;54.244;10.074;2023-12-29T03:40:33;99396.28;;;11.77;100.00
18504;BME280;9381;54.244;10.074;2023-12-29T03:45:33;99398.28;;;11.61;100.00
18504;BME280;9381;54.244;10.074;2023-12-29T03:50:33;99366.59;;;11.87;100.00
18504;BME280;9381;54.244;10.074;2023-12-29T03:55:34;99389.75;;;11.73;100.00
18504;BME280;9381;54.244;10.074;2023-12-29T04:00:36;99396.72;;;11.65;100.00
18504;BME280;9381;54.244;10.074;2023-12-29T04:05:36;99381.72;;;11.83;100.00
18504;BME280;9381;54.244;10.074;2023-12-29T04:10:37;99402.72;;;11.71;100.00
18504;BME280;9381;54.244;10.074;2023-12-29T04:15:37;99374.09;;;11.80;100.00
18504;BME280;9381;54.244;10.074;2023-12-29T04:20:37;99372.13;;;11.71;100.00
18504;BME280;9381;54.244;10.074;2023-12-29T04:25:38;99378.78;;;11.63;100.00
18504;BME280;9381;54.244;10.074;2023-12-29T04:30:38;99381.06;;;11.71;100.00
18504;BME280;9381;54.244;10.074;2023-12-29T04:35:38;99377.22;;;11.68;100.00
18504;BME280;9381;54.244;10.074;2023-12-29T04:40:38;99378.94;;;11.73;100.00
18504;BME280;9381;54.244;10.074;2023-12-29T04:45:39;99370.88;;;11.83;100.00
18504;BME280;9381;54.244;10.074;2023-12-29T04:50:39;99382.28;;;11.85;100.00
18504;BME280;9381;54.244;10.074;2023-12-29T04:55:40;99384.84;;;11.70;100.00
18504;BME280;9381;54.244;10.074;2023-12-29T05:00:40;99408.41;;;11.49;100.00
18504;BME280;9381;54.244;10.074;2023-12-29T05:05:40;99400.31;;;11.53;100.00
18504;BME280;9381;54.244;10.074;2023-12-29T05:10:41;99394.91;;;11.53;100.00
18504;BME280;9381;54.244;10.074;2023-12-29T05:15:41;99396.53;;;11.54;100.00
18504;BME280;9381;54.244;10.074;2023-12-29T05:20:41;99393.56;;;11.51;100.00
18504;BME280;9381;54.244;10.074;2023-12-29T05:25:42;99399.91;;;11.62;100.00
18504;BME280;9381;54.244;10.074;2023-12-29T05:30:42;99393.41;;;11.63;100.00
18504;BME280;9381;54.244;10.074;2023-12-29T05:35:42;99399.97;;;11.67;97.35
18504;BME280;9381;54.244;10.074;2023-12-29T05:40:43;99394.34;;;11.73;96.28
18504;BME280;9381;54.244;10.074;2023-12-29T05:45:43;99395.63;;;11.44;95.41
18504;BME280;9381;54.244;10.074;2023-12-29T05:50:43;99410.19;;;11.60;95.54
18504;BME280;9381;54.244;10.074;2023-12-29T05:55:44;99404.31;;;11.46;94.87
18504;BME280;9381;54.244;10.074;2023-12-29T06:00:45;99411.97;;;11.28;95.58
18504;BME280;9381;54.244;10.074;2023-12-29T06:05:45;99410.63;;;11.30;96.00
18504;BME280;9381;54.244;10.074;2023-12-29T06:10:45;99439.38;;;11.15;96.07
18504;BME280;9381;54.244;10.074;2023-12-29T06:15:46;99414.03;;;10.99;96.39
18504;BME280;9381;54.244;10.074;2023-12-29T06:20:46;99423.16;;;11.15;96.71
18504;BME280;9381;54.244;10.074;2023-12-29T06:25:46;99424.84;;;10.99;96.90
18504;BME280;9381;54.244;10.074;2023-12-29T06:30:47;99420.53;;;11.20;95.05
18504;BME280;9381;54.244;10.074;2023-12-29T06:35:48;99429.63;;;11.35;94.19
18504;BME280;9381;54.244;10.074;2023-12-29T06:40:48;99452.59;;;11.33;94.49
18504;BME280;9381;54.244;10.074;2023-12-29T06:45:49;99455.94;;;11.18;94.73
18504;BME280;9381;54.244;10.074;2023-12-29T06:50:49;99446.06;;;11.29;93.27
18504;BME280;9381;54.244;10.074;2023-12-29T06:55:49;99446.69;;;11.36;92.65
18504;BME280;9381;54.244;10.074;2023-12-29T07:00:50;99455.50;;;11.26;92.96
18504;BME280;9381;54.244;10.074;2023-12-29T07:05:50;99465.38;;;11.37;94.78
18504;BME280;9381;54.244;10.074;2023-12-29T07:10:50;99468.72;;;11.23;96.50
18504;BME280;9381;54.244;10.074;2023-12-29T07:15:51;99470.31;;;11.02;98.45
18504;BME280;9381;54.244;10.074;2023-12-29T07:20:51;99472.28;;;11.07;98.29
18504;BME280;9381;54.244;10.074;2023-12-29T07:25:51;99460.16;;;11.31;99.12
18504;BME280;9381;54.244;10.074;2023-12-29T07:30:52;99459.03;;;11.27;99.59
18504;BME280;9381;54.244;10.074;2023-12-29T07:35:52;99496.63;;;11.07;99.75
18504;BME280;9381;54.244;10.074;2023-12-29T07:40:53;99464.63;;;11.20;98.46
18504;BME280;9381;54.244;10.074;2023-12-29T07:45:53;99468.03;;;11.11;95.71
18504;BME280;9381;54.244;10.074;2023-12-29T07:50:53;99491.97;;;11.19;93.96
18504;BME280;9381;54.244;10.074;2023-12-29T07:55:54;99477.41;;;11.46;92.92
18504;BME280;9381;54.244;10.074;2023-12-29T08:00:55;99496.47;;;11.35;90.87
18504;BME280;9381;54.244;10.074;2023-12-29T08:05:55;99488.00;;;11.48;90.91
18504;BME280;9381;54.244;10.074;2023-12-29T08:10:55;99480.44;;;11.50;90.42
18504;BME280;9381;54.244;10.074;2023-12-29T08:15:56;99472.72;;;11.58;89.61
18504;BME280;9381;54.244;10.074;2023-12-29T08:20:57;99467.53;;;11.35;90.30
18504;BME280;9381;54.244;10.074;2023-12-29T08:26:02;99483.63;;;11.63;89.30
18504;BME280;9381;54.244;10.074;2023-12-29T08:31:03;99483.09;;;11.66;89.31
18504;BME280;9381;54.244;10.074;2023-12-29T08:36:03;99485.03;;;11.49;89.59
18504;BME280;9381;54.244;10.074;2023-12-29T08:41:04;99488.00;;;11.48;90.25
18504;BME280;9381;54.244;10.074;2023-12-29T08:46:04;99528.97;;;11.35;90.43
18504;BME280;9381;54.244;10.074;2023-12-29T08:51:04;99482.94;;;11.56;89.83
18504;BME280;9381;54.244;10.074;2023-12-29T08:56:06;99494.41;;;11.42;90.23
18504;BME280;9381;54.244;10.074;2023-12-29T09:01:06;99494.59;;;11.35;90.72
18504;BME280;9381;54.244;10.074;2023-12-29T09:06:07;99490.16;;;11.46;91.25
18504;BME280;9381;54.244;10.074;2023-12-29T09:11:08;99507.66;;;11.60;90.52
18504;BME280;9381;54.244;10.074;2023-12-29T09:16:09;99513.94;;;11.44;93.23
18504;BME280;9381;54.244;10.074;2023-12-29T09:21:09;99517.47;;;11.44;93.00
18504;BME280;9381;54.244;10.074;2023-12-29T09:26:09;99519.53;;;11.37;92.43
18504;BME280;9381;54.244;10.074;2023-12-29T09:31:10;99528.41;;;11.33;93.79
18504;BME280;9381;54.244;10.074;2023-12-29T09:36:11;99527.53;;;11.49;92.55
18504;BME280;9381;54.244;10.074;2023-12-29T09:41:14;99522.28;;;11.59;91.46
18504;BME280;9381;54.244;10.074;2023-12-29T09:46:16;99528.06;;;11.29;91.59
18504;BME280;9381;54.244;10.074;2023-12-29T09:51:19;99525.66;;;11.70;90.34
18504;BME280;9381;54.244;10.074;2023-12-29T09:56:23;99496.50;;;11.77;88.71
18504;BME280;9381;54.244;10.074;2023-12-29T10:01:25;99500.75;;;11.95;86.19
18504;BME280;9381;54.244;10.074;2023-12-29T10:06:31;99491.88;;;11.99;84.40
18504;BME280;9381;54.244;10.074;2023-12-29T10:11:35;99508.94;;;12.00;82.33
18504;BME280;9381;54.244;10.074;2023-12-29T10:16:44;99495.19;;;12.06;82.87
18504;BME280;9381;54.244;10.074;2023-12-29T10:21:57;99488.59;;;12.24;84.55
18504;BME280;9381;54.244;10.074;2023-12-29T10:27:04;99489.41;;;12.24;84.59
18504;BME280;9381;54.244;10.074;2023-12-29T10:32:04;99491.41;;;12.07;83.68
18504;BME280;9381;54.244;10.074;2023-12-29T10:37:05;99470.97;;;12.53;83.51
18504;BME280;9381;54.244;10.074;2023-12-29T10:42:09;99470.81;;;12.33;83.34
18504;BME280;9381;54.244;10.074;2023-12-29T10:47:11;99483.38;;;12.44;83.06
18504;BME280;9381;54.244;10.074;2023-12-29T10:52:12;99480.09;;;12.15;84.94
18504;BME280;9381;54.244;10.074;2023-12-29T10:57:14;99498.97;;;12.05;86.07
18504;BME280;9381;54.244;10.074;2023-12-29T11:02:14;99474.38;;;12.38;85.59
18504;BME280;9381;54.244;10.074;2023-12-29T11:07:15;99502.91;;;11.93;86.99
18504;BME280;9381;54.244;10.074;2023-12-29T11:12:15;99491.09;;;11.77;88.77
18504;BME280;9381;54.244;10.074;2023-12-29T11:17:18;99492.69;;;11.73;86.91
18504;BME280;9381;54.244;10.074;2023-12-29T11:22:19;99469.34;;;12.52;85.90
18504;BME280;9381;54.244;10.074;2023-12-29T11:27:21;99463.63;;;12.53;82.59
18504;BME280;9381;54.244;10.074;2023-12-29T11:32:30;99458.19;;;12.48;80.99
18504;BME280;9381;54.244;10.074;2023-12-29T11:42:44;99468.56;;;11.98;80.75
18504;BME280;9381;54.244;10.074;2023-12-29T11:47:45;99464.06;;;12.09;80.21
18504;BME280;9381;54.244;10.074;2023-12-29T11:52:46;99467.97;;;11.91;77.29
18504;BME280;9381;54.244;10.074;2023-12-29T11:57:46;99465.59;;;12.00;77.24
18504;BME280;9381;54.244;10.074;2023-12-29T12:02:47;99464.97;;;11.93;77.67
18504;BME280;9381;54.244;10.074;2023-12-29T12:12:55;99461.41;;;11.87;80.05
18504;BME280;9381;54.244;10.074;2023-12-29T12:18:02;99490.25;;;11.77;80.58
18504;BME280;9381;54.244;10.074;2023-12-29T12:23:19;99455.56;;;11.74;80.51
18504;BME280;9381;54.244;10.074;2023-12-29T12:28:20;99450.59;;;11.66;80.10
18504;BME280;9381;54.244;10.074;2023-12-29T12:33:20;99481.03;;;11.14;83.94
18504;BME280;9381;54.244;10.074;2023-12-29T12:38:20;99476.03;;;10.68;93.19
18504;BME280;9381;54.244;10.074;2023-12-29T12:43:25;99442.19;;;10.82;93.27
18504;BME280;9381;54.244;10.074;2023-12-29T12:48:32;99438.97;;;11.23;94.20
18504;BME280;9381;54.244;10.074;2023-12-29T12:53:34;99451.94;;;11.21;90.62
18504;BME280;9381;54.244;10.074;2023-12-29T12:58:39;99458.72;;;11.45;88.76
18504;BME280;9381;54.244;10.074;2023-12-29T13:03:39;99466.13;;;11.11;85.83
18504;BME280;9381;54.244;10.074;2023-12-29T13:08:41;99456.75;;;10.81;85.35
18504;BME280;9381;54.244;10.074;2023-12-29T13:13:42;99454.72;;;10.88;85.75
18504;BME280;9381;54.244;10.074;2023-12-29T13:18:43;99440.53;;;10.81;85.13
18504;BME280;9381;54.244;10.074;2023-12-29T13:23:45;99431.91;;;11.22;83.39
18504;BME280;9381;54.244;10.074;2023-12-29T13:28:45;99430.41;;;11.31;82.39
18504;BME280;9381;54.244;10.074;2023-12-29T13:33:51;99443.16;;;11.57;81.51
18504;BME280;9381;54.244;10.074;2023-12-29T13:38:59;99462.03;;;11.30;81.53
18504;BME280;9381;54.244;10.074;2023-12-29T13:44:06;99446.94;;;11.56;81.24
18504;BME280;9381;54.244;10.074;2023-12-29T13:49:08;99450.34;;;11.68;80.67
18504;BME280;9381;54.244;10.074;2023-12-29T13:54:09;99432.81;;;11.53;79.74
18504;BME280;9381;54.244;10.074;2023-12-29T13:59:10;99439.94;;;11.38;79.96
18504;BME280;9381;54.244;10.074;2023-12-29T14:04:11;99462.00;;;11.47;79.66
18504;BME280;9381;54.244;10.074;2023-12-29T14:09:15;99466.78;;;11.40;79.62
18504;BME280;9381;54.244;10.074;2023-12-29T14:14:23;99475.91;;;11.34;79.05
18504;BME280;9381;54.244;10.074;2023-12-29T14:19:24;99460.28;;;11.41;79.67
18504;BME280;9381;54.244;10.074;2023-12-29T14:24:25;99466.34;;;11.48;79.40
18504;BME280;9381;54.244;10.074;2023-12-29T14:29:25;99476.75;;;11.18;79.05
18504;BME280;9381;54.244;10.074;2023-12-29T14:34:26;99496.41;;;11.08;79.55
18504;BME280;9381;54.244;10.074;2023-12-29T14:39:26;99498.69;;;11.16;80.52
18504;BME280;9381;54.244;10.074;2023-12-29T14:44:27;99480.34;;;11.02;83.95
18504;BME280;9381;54.244;10.074;2023-12-29T14:49:27;99478.22;;;11.04;83.58
18504;BME280;9381;54.244;10.074;2023-12-29T14:54:27;99487.44;;;11.08;82.40
18504;BME280;9381;54.244;10.074;2023-12-29T14:59:28;99516.47;;;11.12;81.55
18504;BME280;9381;54.244;10.074;2023-12-29T15:04:31;99519.91;;;11.08;81.59
18504;BME280;9381;54.244;10.074;2023-12-29T15:09:32;99509.19;;;11.13;81.77
18504;BME280;9381;54.244;10.074;2023-12-29T15:14:34;99517.16;;;11.03;81.73
18504;BME280;9381;54.244;10.074;2023-12-29T15:19:35;99501.25;;;11.06;81.48
18504;BME280;9381;54.244;10.074;2023-12-29T15:24:36;99515.53;;;11.02;81.36
18504;BME280;9381;54.244;10.074;2023-12-29T15:29:36;99514.34;;;10.98;81.11
18504;BME280;9381;54.244;10.074;2023-12-29T15:34:36;99515.53;;;11.02;81.46
18504;BME280;9381;54.244;10.074;2023-12-29T15:39:40;99506.66;;;10.90;81.40
18504;BME280;9381;54.244;10.074;2023-12-29T15:44:41;99492.13;;;11.12;81.49
18504;BME280;9381;54.244;10.074;2023-12-29T15:49:41;99519.13;;;10.74;81.26
18504;BME280;9381;54.244;10.074;2023-12-29T15:54:41;99507.97;;;11.04;81.35
18504;BME280;9381;54.244;10.074;2023-12-29T15:59:42;99510.84;;;10.97;81.81
18504;BME280;9381;54.244;10.074;2023-12-29T16:04:44;99519.44;;;10.94;81.98
18504;BME280;9381;54.244;10.074;2023-12-29T16:09:45;99525.00;;;11.04;81.44
18504;BME280;9381;54.244;10.074;2023-12-29T16:14:45;99525.44;;;10.96;80.81
18504;BME280;9381;54.244;10.074;2023-12-29T16:19:45;99527.66;;;10.99;81.66
18504;BME280;9381;54.244;10.074;2023-12-29T16:24:46;99533.25;;;10.93;81.77
18504;BME280;9381;54.244;10.074;2023-12-29T16:29:49;99536.19;;;10.91;82.20
18504;BME280;9381;54.244;10.074;2023-12-29T16:34:49;99538.84;;;11.08;81.42
18504;BME280;9381;54.244;10.074;2023-12-29T16:39:50;99538.94;;;11.13;81.87
18504;BME280;9381;54.244;10.074;2023-12-29T16:44:52;99562.81;;;10.99;82.10
18504;BME280;9381;54.244;10.074;2023-12-29T16:49:53;99601.09;;;10.75;82.95
18504;BME280;9381;54.244;10.074;2023-12-29T16:54:53;99570.28;;;10.76;82.81
18504;BME280;9381;54.244;10.074;2023-12-29T16:59:53;99558.97;;;10.79;83.10
18504;BME280;9381;54.244;10.074;2023-12-29T17:04:53;99561.25;;;10.87;83.23
18504;BME280;9381;54.244;10.074;2023-12-29T17:09:54;99557.00;;;10.74;82.94
18504;BME280;9381;54.244;10.074;2023-12-29T17:14:54;99543.88;;;10.66;83.06
18504;BME280;9381;54.244;10.074;2023-12-29T17:19:55;99558.06;;;10.57;82.84
18504;BME280;9381;54.244;10.074;2023-12-29T17:24:55;99552.00;;;10.66;82.92
18504;BME280;9381;54.244;10.074;2023-12-29T17:29:55;99557.34;;;10.78;82.59
18504;BME280;9381;54.244;10.074;2023-12-29T17:34:56;99559.97;;;10.73;82.89
18504;BME280;9381;54.244;10.074;2023-12-29T17:39:56;99570.94;;;10.83;83.33
18504;BME280;9381;54.244;10.074;2023-12-29T17:44:56;99588.59;;;10.57;83.25
18504;BME280;9381;54.244;10.074;2023-12-29T17:49:57;99577.06;;;10.62;83.93
18504;BME280;9381;54.244;10.074;2023-12-29T17:54:57;99568.88;;;10.57;84.13
18504;BME280;9381;54.244;10.074;2023-12-29T17:59:58;99572.56;;;10.67;84.48
18504;BME280;9381;54.244;10.074;2023-12-29T18:04:58;99575.19;;;10.62;83.73
18504;BME280;9381;54.244;10.074;2023-12-29T18:09:58;99569.28;;;10.65;83.41
18504;BME280;9381;54.244;10.074;2023-12-29T18:14:59;99601.31;;;10.57;83.83
18504;BME280;9381;54.244;10.074;2023-12-29T18:20:00;99592.38;;;10.56;83.75
18504;BME280;9381;54.244;10.074;2023-12-29T18:25:00;99599.09;;;10.54;83.53
18504;BME280;9381;54.244;10.074;2023-12-29T18:30:01;99550.63;;;10.64;84.14
18504;BME280;9381;54.244;10.074;2023-12-29T18:35:02;99544.56;;;10.57;84.04
18504;BME280;9381;54.244;10.074;2023-12-29T18:40:04;99537.91;;;10.48;83.97
18504;BME280;9381;54.244;10.074;2023-12-29T18:45:05;99546.50;;;10.78;82.93
18504;BME280;9381;54.244;10.074;2023-12-29T18:50:06;99558.97;;;10.62;83.61
18504;BME280;9381;54.244;10.074;2023-12-29T18:55:07;99594.00;;;10.41;83.79
18504;BME280;9381;54.244;10.074;2023-12-29T19:00:07;99585.84;;;10.69;83.33
18504;BME280;9381;54.244;10.074;2023-12-29T19:05:08;99599.50;;;10.46;83.81
18504;BME280;9381;54.244;10.074;2023-12-29T19:10:08;99588.38;;;10.59;83.82
18504;BME280;9381;54.244;10.074;2023-12-29T19:15:09;99611.84;;;10.42;84.42
18504;BME280;9381;54.244;10.074;2023-12-29T19:20:11;99600.53;;;10.45;84.09
18504;BME280;9381;54.244;10.074;2023-12-29T19:25:11;99591.69;;;10.33;84.76
18504;BME280;9381;54.244;10.074;2023-12-29T19:30:15;99598.25;;;10.37;84.80
18504;BME280;9381;54.244;10.074;2023-12-29T19:35:18;99594.69;;;10.48;84.32
18504;BME280;9381;54.244;10.074;2023-12-29T19:40:18;99584.22;;;10.23;84.05
18504;BME280;9381;54.244;10.074;2023-12-29T19:45:18;99585.78;;;10.36;84.86
18504;BME280;9381;54.244;10.074;2023-12-29T19:50:20;99588.25;;;10.37;84.73
18504;BME280;9381;54.244;10.074;2023-12-29T19:55:20;99583.09;;;10.36;85.06
18504;BME280;9381;54.244;10.074;2023-12-29T20:00:20;99582.88;;;10.54;84.28
18504;BME280;9381;54.244;10.074;2023-12-29T20:05:21;99585.84;;;10.52;84.33
18504;BME280;9381;54.244;10.074;2023-12-29T20:10:24;99586.16;;;10.56;83.81
18504;BME280;9381;54.244;10.074;2023-12-29T20:15:24;99590.91;;;10.49;84.49
18504;BME280;9381;54.244;10.074;2023-12-29T20:20:25;99589.09;;;10.38;84.72
18504;BME280;9381;54.244;10.074;2023-12-29T20:25:27;99583.41;;;10.39;84.00
18504;BME280;9381;54.244;10.074;2023-12-29T20:30:28;99586.56;;;10.48;84.46
18504;BME280;9381;54.244;10.074;2023-12-29T20:35:28;99588.69;;;10.46;84.46
18504;BME280;9381;54.244;10.074;2023-12-29T20:40:28;99601.28;;;10.40;84.64
18504;BME280;9381;54.244;10.074;2023-12-29T20:45:29;99597.59;;;10.46;84.20
18504;BME280;9381;54.244;10.074;2023-12-29T20:50:29;99587.53;;;10.42;84.49
18504;BME280;9381;54.244;10.074;2023-12-29T20:55:29;99584.44;;;10.22;84.90
18504;BME280;9381;54.244;10.074;2023-12-29T21:00:29;99592.63;;;10.27;85.18
18504;BME280;9381;54.244;10.074;2023-12-29T21:05:30;99597.38;;;10.20;85.25
18504;BME280;9381;54.244;10.074;2023-12-29T21:10:30;99586.94;;;10.40;85.04
18504;BME280;9381;54.244;10.074;2023-12-29T21:15:30;99597.25;;;10.26;85.16
18504;BME280;9381;54.244;10.074;2023-12-29T21:20:31;99588.41;;;10.03;85.86
18504;BME280;9381;54.244;10.074;2023-12-29T21:25:31;99585.78;;;10.08;86.29
18504;BME280;9381;54.244;10.074;2023-12-29T21:30:33;99593.25;;;9.78;86.66
18504;BME280;9381;54.244;10.074;2023-12-29T21:35:33;99597.22;;;9.87;86.82
18504;BME280;9381;54.244;10.074;2023-12-29T21:40:33;99608.50;;;9.84;86.68
18504;BME280;9381;54.244;10.074;2023-12-29T21:45:34;99605.44;;;9.92;86.58
18504;BME280;9381;54.244;10.074;2023-12-29T21:50:34;99607.09;;;9.81;86.93
18504;BME280;9381;54.244;10.074;2023-12-29T21:55:36;99618.41;;;9.67;87.41
18504;BME280;9381;54.244;10.074;2023-12-29T22:00:38;99604.00;;;10.01;86.69
18504;BME280;9381;54.244;10.074;2023-12-29T22:05:38;99604.88;;;9.78;87.50
18504;BME280;9381;54.244;10.074;2023-12-29T22:10:39;99597.66;;;10.07;87.31
18504;BME280;9381;54.244;10.074;2023-12-29T22:15:39;99603.75;;;10.14;86.83
18504;BME280;9381;54.244;10.074;2023-12-29T22:20:40;99601.41;;;10.06;87.12
18504;BME280;9381;54.244;10.074;2023-12-29T22:25:40;99594.09;;;9.78;88.77
18504;BME280;9381;54.244;10.074;2023-12-29T22:30:41;99615.72;;;9.67;88.78
18504;BME280;9381;54.244;10.074;2023-12-29T22:35:41;99605.69;;;9.79;88.11
18504;BME280;9381;54.244;10.074;2023-12-29T22:40:41;99608.09;;;9.64;88.77
18504;BME280;9381;54.244;10.074;2023-12-29T22:45:42;99616.50;;;9.79;88.60
18504;BME280;9381;54.244;10.074;2023-12-29T22:50:42;99602.63;;;9.87;89.06
18504;BME280;9381;54.244;10.074;2023-12-29T22:55:42;99614.44;;;9.58;89.85
18504;BME280;9381;54.244;10.074;2023-12-29T23:00:43;99620.03;;;9.68;90.11
18504;BME280;9381;54.244;10.074;2023-12-29T23:05:45;99643.41;;;9.62;89.08
18504;BME280;9381;54.244;10.074;2023-12-29T23:10:45;99614.28;;;9.76;90.21
18504;BME280;9381;54.244;10.074;2023-12-29T23:15:47;99620.31;;;9.55;90.74
18504;BME280;9381;54.244;10.074;2023-12-29T23:20:49;99624.03;;;9.77;89.16
18504;BME280;9381;54.244;10.074;2023-12-29T23:25:49;99615.28;;;9.47;90.11
18504;BME280;9381;54.244;10.074;2023-12-29T23:30:49;99638.16;;;9.56;89.51
18504;BME280;9381;54.244;10.074;2023-12-29T23:35:50;99607.13;;;9.70;89.05
18504;BME280;9381;54.244;10.074;2023-12-29T23:40:50;99609.97;;;9.52;89.00
18504;BME280;9381;54.244;10.074;2023-12-29T23:45:51;99618.19;;;9.57;88.65
18504;BME280;9381;54.244;10.074;2023-12-29T23:50:51;99613.00;;;9.67;87.95
18504;BME280;9381;54.244;10.074;2023-12-29T23:55:51;99609.13;;;9.63;88.75
